sensor_id;sensor_type;location;lat;lon;timestamp;P1;durP1;ratioP1;P2;durP2;ratioP2
52918;SDS011;38793;52.690;6.812;2024-03-23T00:54:17;35.85;;;8.57;;
52918;SDS011;38793;52.690;6.812;2024-03-23T00:56:43;41.33;;;9.30;;
52918;SDS011;38793;52.690;6.812;2024-03-23T00:59:09;39.33;;;9.07;;
52918;SDS011;38793;52.690;6.812;2024-03-23T01:01:35;51.13;;;10.18;;
52918;SDS011;38793;52.690;6.812;2024-03-23T01:04:00;26.43;;;7.83;;
52918;SDS011;38793;52.690;6.812;2024-03-23T01:06:26;45.65;;;10.43;;
52918;SDS011;38793;52.690;6.812;2024-03-23T01:08:52;35.78;;;8.00;;
52918;SDS011;38793;52.690;6.812;2024-03-23T01:11:17;41.87;;;7.97;;
52918;SDS011;38793;52.690;6.812;2024-03-23T01:13:43;31.60;;;8.33;;
52918;SDS011;38793;52.690;6.812;2024-03-23T01:16:09;34.83;;;6.87;;
52918;SDS011;38793;52.690;6.812;2024-03-23T01:18:34;29.77;;;7.75;;
52918;SDS011;38793;52.690;6.812;2024-03-23T01:21:00;37.30;;;7.53;;
52918;SDS011;38793;52.690;6.812;2024-03-23T01:23:26;32.43;;;7.13;;
52918;SDS011;38793;52.690;6.812;2024-03-23T01:25:55;29.60;;;8.03;;
52918;SDS011;38793;52.690;6.812;2024-03-23T01:28:21;25.38;;;8.80;;
52918;SDS011;38793;52.690;6.812;2024-03-23T01:30:47;30.52;;;7.53;;
52918;SDS011;38793;52.690;6.812;2024-03-23T01:33:13;36.40;;;9.15;;
52918;SDS011;38793;52.690;6.812;2024-03-23T01:35:39;41.00;;;8.65;;
52918;SDS011;38793;52.690;6.812;2024-03-23T01:38:04;27.13;;;8.57;;
52918;SDS011;38793;52.690;6.812;2024-03-23T01:40:30;33.35;;;7.68;;
52918;SDS011;38793;52.690;6.812;2024-03-23T01:45:23;48.75;;;10.13;;
52918;SDS011;38793;52.690;6.812;2024-03-23T01:47:50;32.30;;;8.13;;
52918;SDS011;38793;52.690;6.812;2024-03-23T01:50:16;38.90;;;9.02;;
52918;SDS011;38793;52.690;6.812;2024-03-23T01:52:42;41.20;;;8.93;;
52918;SDS011;38793;52.690;6.812;2024-03-23T01:55:09;45.40;;;10.70;;
52918;SDS011;38793;52.690;6.812;2024-03-23T01:57:35;30.77;;;8.70;;
52918;SDS011;38793;52.690;6.812;2024-03-23T02:00:00;33.20;;;8.33;;
52918;SDS011;38793;52.690;6.812;2024-03-23T02:02:26;33.17;;;8.98;;
52918;SDS011;38793;52.690;6.812;2024-03-23T02:04:52;27.13;;;8.40;;
52918;SDS011;38793;52.690;6.812;2024-03-23T02:07:18;36.37;;;8.00;;
52918;SDS011;38793;52.690;6.812;2024-03-23T02:09:43;24.57;;;7.50;;
52918;SDS011;38793;52.690;6.812;2024-03-23T02:12:09;35.38;;;8.77;;
52918;SDS011;38793;52.690;6.812;2024-03-23T02:14:35;35.30;;;7.55;;
52918;SDS011;38793;52.690;6.812;2024-03-23T02:17:01;32.73;;;7.47;;
52918;SDS011;38793;52.690;6.812;2024-03-23T02:19:26;30.17;;;6.97;;
52918;SDS011;38793;52.690;6.812;2024-03-23T02:21:52;31.07;;;7.97;;
52918;SDS011;38793;52.690;6.812;2024-03-23T02:24:17;27.90;;;7.13;;
52918;SDS011;38793;52.690;6.812;2024-03-23T02:26:43;31.03;;;8.00;;
52918;SDS011;38793;52.690;6.812;2024-03-23T02:29:09;30.48;;;6.82;;
52918;SDS011;38793;52.690;6.812;2024-03-23T02:31:35;33.30;;;8.97;;
52918;SDS011;38793;52.690;6.812;2024-03-23T02:34:01;25.80;;;8.27;;
52918;SDS011;38793;52.690;6.812;2024-03-23T02:36:26;22.87;;;6.20;;
52918;SDS011;38793;52.690;6.812;2024-03-23T02:38:52;26.30;;;6.73;;
52918;SDS011;38793;52.690;6.812;2024-03-23T02:41:17;33.30;;;6.83;;
52918;SDS011;38793;52.690;6.812;2024-03-23T02:43:48;25.00;;;6.18;;
52918;SDS011;38793;52.690;6.812;2024-03-23T02:46:17;33.85;;;7.25;;
52918;SDS011;38793;52.690;6.812;2024-03-23T02:48:43;30.67;;;7.65;;
52918;SDS011;38793;52.690;6.812;2024-03-23T02:51:08;28.50;;;8.18;;
52918;SDS011;38793;52.690;6.812;2024-03-23T02:53:34;41.72;;;7.97;;
52918;SDS011;38793;52.690;6.812;2024-03-23T02:56:00;28.92;;;7.10;;
52918;SDS011;38793;52.690;6.812;2024-03-23T02:58:26;25.27;;;5.65;;
52918;SDS011;38793;52.690;6.812;2024-03-23T03:00:51;27.95;;;7.05;;
52918;SDS011;38793;52.690;6.812;2024-03-23T03:03:17;39.20;;;7.17;;
52918;SDS011;38793;52.690;6.812;2024-03-23T03:05:43;32.00;;;8.43;;
52918;SDS011;38793;52.690;6.812;2024-03-23T03:08:08;27.30;;;6.57;;
52918;SDS011;38793;52.690;6.812;2024-03-23T03:10:34;33.27;;;7.20;;
52918;SDS011;38793;52.690;6.812;2024-03-23T03:13:01;24.45;;;6.60;;
52918;SDS011;38793;52.690;6.812;2024-03-23T03:15:27;35.45;;;7.32;;
52918;SDS011;38793;52.690;6.812;2024-03-23T03:17:53;27.85;;;8.60;;
52918;SDS011;38793;52.690;6.812;2024-03-23T03:20:19;34.40;;;7.35;;
52918;SDS011;38793;52.690;6.812;2024-03-23T03:22:47;26.33;;;7.72;;
52918;SDS011;38793;52.690;6.812;2024-03-23T03:25:12;28.10;;;5.85;;
52918;SDS011;38793;52.690;6.812;2024-03-23T03:27:38;29.30;;;7.30;;
52918;SDS011;38793;52.690;6.812;2024-03-23T03:30:04;32.65;;;6.93;;
52918;SDS011;38793;52.690;6.812;2024-03-23T03:32:32;34.28;;;6.68;;
52918;SDS011;38793;52.690;6.812;2024-03-23T03:34:57;22.02;;;6.57;;
52918;SDS011;38793;52.690;6.812;2024-03-23T03:37:23;29.03;;;6.37;;
52918;SDS011;38793;52.690;6.812;2024-03-23T03:39:49;23.92;;;6.35;;
52918;SDS011;38793;52.690;6.812;2024-03-23T03:42:15;32.60;;;7.30;;
52918;SDS011;38793;52.690;6.812;2024-03-23T03:44:40;31.00;;;7.65;;
52918;SDS011;38793;52.690;6.812;2024-03-23T03:47:06;25.33;;;6.97;;
52918;SDS011;38793;52.690;6.812;2024-03-23T03:49:32;35.83;;;7.43;;
52918;SDS011;38793;52.690;6.812;2024-03-23T03:51:57;24.88;;;7.28;;
52918;SDS011;38793;52.690;6.812;2024-03-23T03:54:23;23.77;;;5.97;;
52918;SDS011;38793;52.690;6.812;2024-03-23T03:56:49;23.83;;;6.77;;
52918;SDS011;38793;52.690;6.812;2024-03-23T03:59:15;33.83;;;7.70;;
52918;SDS011;38793;52.690;6.812;2024-03-23T04:01:41;26.48;;;6.78;;
52918;SDS011;38793;52.690;6.812;2024-03-23T04:04:06;35.33;;;6.83;;
52918;SDS011;38793;52.690;6.812;2024-03-23T04:06:32;31.93;;;6.87;;
52918;SDS011;38793;52.690;6.812;2024-03-23T04:08:58;34.58;;;8.90;;
52918;SDS011;38793;52.690;6.812;2024-03-23T04:11:24;27.48;;;6.22;;
52918;SDS011;38793;52.690;6.812;2024-03-23T04:13:50;28.10;;;6.88;;
52918;SDS011;38793;52.690;6.812;2024-03-23T04:16:28;22.67;;;5.50;;
52918;SDS011;38793;52.690;6.812;2024-03-23T04:18:55;27.40;;;9.13;;
52918;SDS011;38793;52.690;6.812;2024-03-23T04:21:21;25.00;;;7.53;;
52918;SDS011;38793;52.690;6.812;2024-03-23T04:23:48;31.65;;;6.80;;
52918;SDS011;38793;52.690;6.812;2024-03-23T04:26:13;32.70;;;8.23;;
52918;SDS011;38793;52.690;6.812;2024-03-23T04:31:05;24.63;;;5.45;;
52918;SDS011;38793;52.690;6.812;2024-03-23T04:33:31;28.42;;;6.40;;
52918;SDS011;38793;52.690;6.812;2024-03-23T04:35:57;27.45;;;8.88;;
52918;SDS011;38793;52.690;6.812;2024-03-23T04:38:22;30.97;;;7.67;;
52918;SDS011;38793;52.690;6.812;2024-03-23T04:40:58;34.30;;;7.33;;
52918;SDS011;38793;52.690;6.812;2024-03-23T04:43:25;24.98;;;7.65;;
52918;SDS011;38793;52.690;6.812;2024-03-23T04:45:51;31.05;;;7.75;;
52918;SDS011;38793;52.690;6.812;2024-03-23T04:48:19;33.30;;;8.45;;
52918;SDS011;38793;52.690;6.812;2024-03-23T04:50:54;29.33;;;5.68;;
52918;SDS011;38793;52.690;6.812;2024-03-23T04:53:21;32.10;;;7.78;;
52918;SDS011;38793;52.690;6.812;2024-03-23T04:55:46;33.13;;;8.50;;
52918;SDS011;38793;52.690;6.812;2024-03-23T04:58:12;29.80;;;7.30;;
52918;SDS011;38793;52.690;6.812;2024-03-23T05:00:38;24.67;;;6.30;;
52918;SDS011;38793;52.690;6.812;2024-03-23T05:03:03;33.53;;;7.10;;
52918;SDS011;38793;52.690;6.812;2024-03-23T05:05:29;37.40;;;8.48;;
52918;SDS011;38793;52.690;6.812;2024-03-23T05:07:55;30.67;;;7.30;;
52918;SDS011;38793;52.690;6.812;2024-03-23T05:10:21;33.27;;;6.80;;
52918;SDS011;38793;52.690;6.812;2024-03-23T05:12:46;44.63;;;6.77;;
52918;SDS011;38793;52.690;6.812;2024-03-23T05:15:12;32.17;;;6.93;;
52918;SDS011;38793;52.690;6.812;2024-03-23T05:17:38;29.33;;;7.10;;
52918;SDS011;38793;52.690;6.812;2024-03-23T05:20:04;23.20;;;7.03;;
52918;SDS011;38793;52.690;6.812;2024-03-23T05:22:34;26.15;;;7.03;;
52918;SDS011;38793;52.690;6.812;2024-03-23T05:25:01;27.13;;;7.72;;
52918;SDS011;38793;52.690;6.812;2024-03-23T05:27:29;22.08;;;8.60;;
52918;SDS011;38793;52.690;6.812;2024-03-23T05:29:56;36.40;;;8.85;;
52918;SDS011;38793;52.690;6.812;2024-03-23T05:32:22;26.10;;;6.97;;
52918;SDS011;38793;52.690;6.812;2024-03-23T05:34:48;25.15;;;7.63;;
52918;SDS011;38793;52.690;6.812;2024-03-23T05:37:15;21.70;;;7.25;;
52918;SDS011;38793;52.690;6.812;2024-03-23T05:39:41;38.47;;;7.13;;
52918;SDS011;38793;52.690;6.812;2024-03-23T05:42:06;24.53;;;6.37;;
52918;SDS011;38793;52.690;6.812;2024-03-23T05:44:33;21.48;;;6.00;;
52918;SDS011;38793;52.690;6.812;2024-03-23T05:46:58;21.58;;;6.38;;
52918;SDS011;38793;52.690;6.812;2024-03-23T05:49:24;25.40;;;7.03;;
52918;SDS011;38793;52.690;6.812;2024-03-23T05:51:50;26.80;;;6.40;;
52918;SDS011;38793;52.690;6.812;2024-03-23T05:54:15;24.47;;;6.67;;
52918;SDS011;38793;52.690;6.812;2024-03-23T05:56:41;25.77;;;5.77;;
52918;SDS011;38793;52.690;6.812;2024-03-23T05:59:07;19.70;;;5.72;;
52918;SDS011;38793;52.690;6.812;2024-03-23T06:01:32;21.83;;;6.57;;
52918;SDS011;38793;52.690;6.812;2024-03-23T06:03:58;29.87;;;6.57;;
52918;SDS011;38793;52.690;6.812;2024-03-23T06:06:26;22.10;;;6.60;;
52918;SDS011;38793;52.690;6.812;2024-03-23T06:08:52;22.45;;;5.97;;
52918;SDS011;38793;52.690;6.812;2024-03-23T06:11:17;25.20;;;5.47;;
52918;SDS011;38793;52.690;6.812;2024-03-23T06:13:43;25.67;;;5.83;;
52918;SDS011;38793;52.690;6.812;2024-03-23T06:16:09;20.60;;;6.00;;
52918;SDS011;38793;52.690;6.812;2024-03-23T06:18:35;14.77;;;4.63;;
52918;SDS011;38793;52.690;6.812;2024-03-23T06:21:01;21.63;;;5.80;;
52918;SDS011;38793;52.690;6.812;2024-03-23T06:23:26;22.23;;;4.67;;
52918;SDS011;38793;52.690;6.812;2024-03-23T06:25:52;18.73;;;5.03;;
52918;SDS011;38793;52.690;6.812;2024-03-23T06:28:17;20.73;;;5.77;;
52918;SDS011;38793;52.690;6.812;2024-03-23T06:30:43;19.63;;;5.40;;
52918;SDS011;38793;52.690;6.812;2024-03-23T06:33:09;17.03;;;5.27;;
52918;SDS011;38793;52.690;6.812;2024-03-23T06:35:34;19.73;;;5.00;;
52918;SDS011;38793;52.690;6.812;2024-03-23T06:38:00;15.17;;;3.73;;
52918;SDS011;38793;52.690;6.812;2024-03-23T06:40:26;19.25;;;4.57;;
52918;SDS011;38793;52.690;6.812;2024-03-23T06:42:51;15.32;;;4.63;;
52918;SDS011;38793;52.690;6.812;2024-03-23T06:45:17;17.73;;;4.67;;
52918;SDS011;38793;52.690;6.812;2024-03-23T06:47:48;18.40;;;4.97;;
52918;SDS011;38793;52.690;6.812;2024-03-23T06:50:14;20.00;;;3.83;;
52918;SDS011;38793;52.690;6.812;2024-03-23T06:52:40;16.83;;;2.97;;
52918;SDS011;38793;52.690;6.812;2024-03-23T06:55:06;16.93;;;3.80;;
52918;SDS011;38793;52.690;6.812;2024-03-23T06:57:32;13.13;;;3.40;;
52918;SDS011;38793;52.690;6.812;2024-03-23T06:59:57;15.80;;;3.83;;
52918;SDS011;38793;52.690;6.812;2024-03-23T07:02:23;18.30;;;3.60;;
52918;SDS011;38793;52.690;6.812;2024-03-23T07:04:48;18.23;;;4.33;;
52918;SDS011;38793;52.690;6.812;2024-03-23T07:07:14;11.95;;;2.72;;
52918;SDS011;38793;52.690;6.812;2024-03-23T07:09:40;17.00;;;4.63;;
52918;SDS011;38793;52.690;6.812;2024-03-23T07:12:06;20.70;;;3.97;;
52918;SDS011;38793;52.690;6.812;2024-03-23T07:14:31;13.73;;;4.28;;
52918;SDS011;38793;52.690;6.812;2024-03-23T07:16:57;15.40;;;3.97;;
52918;SDS011;38793;52.690;6.812;2024-03-23T07:19:23;18.83;;;4.67;;
52918;SDS011;38793;52.690;6.812;2024-03-23T07:21:49;18.38;;;3.70;;
52918;SDS011;38793;52.690;6.812;2024-03-23T07:24:15;20.17;;;4.63;;
52918;SDS011;38793;52.690;6.812;2024-03-23T07:26:41;22.13;;;5.53;;
52918;SDS011;38793;52.690;6.812;2024-03-23T07:29:06;22.20;;;4.63;;
52918;SDS011;38793;52.690;6.812;2024-03-23T07:31:32;24.60;;;6.95;;
52918;SDS011;38793;52.690;6.812;2024-03-23T07:33:58;21.13;;;6.10;;
52918;SDS011;38793;52.690;6.812;2024-03-23T07:36:24;17.27;;;5.33;;
52918;SDS011;38793;52.690;6.812;2024-03-23T07:38:49;21.00;;;6.00;;
52918;SDS011;38793;52.690;6.812;2024-03-23T07:41:16;20.88;;;5.43;;
52918;SDS011;38793;52.690;6.812;2024-03-23T07:43:46;16.75;;;6.07;;
52918;SDS011;38793;52.690;6.812;2024-03-23T07:46:12;21.50;;;4.38;;
52918;SDS011;38793;52.690;6.812;2024-03-23T07:48:40;17.98;;;4.97;;
52918;SDS011;38793;52.690;6.812;2024-03-23T07:51:10;27.40;;;5.45;;
52918;SDS011;38793;52.690;6.812;2024-03-23T07:53:45;22.77;;;4.47;;
52918;SDS011;38793;52.690;6.812;2024-03-23T07:56:12;17.15;;;3.65;;
52918;SDS011;38793;52.690;6.812;2024-03-23T07:58:40;11.70;;;3.28;;
52918;SDS011;38793;52.690;6.812;2024-03-23T08:01:06;15.63;;;3.65;;
52918;SDS011;38793;52.690;6.812;2024-03-23T08:03:36;9.93;;;3.08;;
52918;SDS011;38793;52.690;6.812;2024-03-23T08:06:16;15.50;;;3.50;;
52918;SDS011;38793;52.690;6.812;2024-03-23T08:08:45;8.52;;;3.05;;
52918;SDS011;38793;52.690;6.812;2024-03-23T08:11:11;12.13;;;2.78;;
52918;SDS011;38793;52.690;6.812;2024-03-23T08:13:41;6.88;;;2.20;;
52918;SDS011;38793;52.690;6.812;2024-03-23T08:16:07;10.38;;;2.38;;
52918;SDS011;38793;52.690;6.812;2024-03-23T08:18:33;9.50;;;2.92;;
52918;SDS011;38793;52.690;6.812;2024-03-23T08:21:00;13.30;;;2.05;;
52918;SDS011;38793;52.690;6.812;2024-03-23T08:25:59;8.75;;;2.00;;
52918;SDS011;38793;52.690;6.812;2024-03-23T08:28:28;5.32;;;1.10;;
52918;SDS011;38793;52.690;6.812;2024-03-23T08:30:54;9.45;;;2.28;;
52918;SDS011;38793;52.690;6.812;2024-03-23T08:33:21;5.32;;;1.48;;
52918;SDS011;38793;52.690;6.812;2024-03-23T08:35:55;7.18;;;1.00;;
52918;SDS011;38793;52.690;6.812;2024-03-23T08:38:22;8.10;;;1.83;;
52918;SDS011;38793;52.690;6.812;2024-03-23T08:40:56;6.35;;;1.05;;
52918;SDS011;38793;52.690;6.812;2024-03-23T08:43:22;6.22;;;1.23;;
52918;SDS011;38793;52.690;6.812;2024-03-23T08:45:48;3.70;;;0.87;;
52918;SDS011;38793;52.690;6.812;2024-03-23T08:48:14;6.00;;;1.50;;
52918;SDS011;38793;52.690;6.812;2024-03-23T08:50:39;3.37;;;1.03;;
52918;SDS011;38793;52.690;6.812;2024-03-23T08:53:05;6.37;;;1.33;;
52918;SDS011;38793;52.690;6.812;2024-03-23T08:55:31;5.17;;;0.53;;
52918;SDS011;38793;52.690;6.812;2024-03-23T08:57:56;7.32;;;0.80;;
52918;SDS011;38793;52.690;6.812;2024-03-23T09:00:22;3.93;;;1.20;;
52918;SDS011;38793;52.690;6.812;2024-03-23T09:02:48;6.73;;;1.10;;
52918;SDS011;38793;52.690;6.812;2024-03-23T09:05:13;4.40;;;1.00;;
52918;SDS011;38793;52.690;6.812;2024-03-23T09:07:39;7.60;;;1.53;;
52918;SDS011;38793;52.690;6.812;2024-03-23T09:10:05;3.78;;;1.00;;
52918;SDS011;38793;52.690;6.812;2024-03-23T09:12:32;6.75;;;1.40;;
52918;SDS011;38793;52.690;6.812;2024-03-23T09:14:57;5.60;;;0.77;;
52918;SDS011;38793;52.690;6.812;2024-03-23T09:17:23;7.60;;;1.33;;
52918;SDS011;38793;52.690;6.812;2024-03-23T09:19:49;4.97;;;1.07;;
52918;SDS011;38793;52.690;6.812;2024-03-23T09:22:14;4.77;;;0.93;;
52918;SDS011;38793;52.690;6.812;2024-03-23T09:24:40;4.88;;;0.75;;
52918;SDS011;38793;52.690;6.812;2024-03-23T09:27:06;6.77;;;0.80;;
52918;SDS011;38793;52.690;6.812;2024-03-23T09:29:31;5.78;;;1.00;;
52918;SDS011;38793;52.690;6.812;2024-03-23T09:31:57;5.43;;;0.90;;
52918;SDS011;38793;52.690;6.812;2024-03-23T09:34:23;4.78;;;0.85;;
52918;SDS011;38793;52.690;6.812;2024-03-23T09:36:52;6.78;;;1.13;;
52918;SDS011;38793;52.690;6.812;2024-03-23T09:39:18;4.95;;;1.13;;
52918;SDS011;38793;52.690;6.812;2024-03-23T09:41:44;7.97;;;1.63;;
52918;SDS011;38793;52.690;6.812;2024-03-23T09:44:10;4.00;;;0.63;;
52918;SDS011;38793;52.690;6.812;2024-03-23T09:46:36;9.25;;;0.77;;
52918;SDS011;38793;52.690;6.812;2024-03-23T09:49:04;3.28;;;1.38;;
52918;SDS011;38793;52.690;6.812;2024-03-23T09:51:33;3.00;;;1.20;;
52918;SDS011;38793;52.690;6.812;2024-03-23T09:54:01;8.23;;;0.90;;
52918;SDS011;38793;52.690;6.812;2024-03-23T09:56:26;5.40;;;1.13;;
52918;SDS011;38793;52.690;6.812;2024-03-23T09:58:59;5.57;;;1.00;;
52918;SDS011;38793;52.690;6.812;2024-03-23T10:01:31;7.97;;;0.90;;
52918;SDS011;38793;52.690;6.812;2024-03-23T10:03:57;8.55;;;1.88;;
52918;SDS011;38793;52.690;6.812;2024-03-23T10:06:23;11.43;;;1.87;;
52918;SDS011;38793;52.690;6.812;2024-03-23T10:08:52;9.30;;;1.10;;
52918;SDS011;38793;52.690;6.812;2024-03-23T10:11:20;13.55;;;1.48;;
52918;SDS011;38793;52.690;6.812;2024-03-23T10:13:46;7.47;;;1.20;;
52918;SDS011;38793;52.690;6.812;2024-03-23T10:16:12;6.50;;;1.10;;
52918;SDS011;38793;52.690;6.812;2024-03-23T10:18:48;11.20;;;1.88;;
52918;SDS011;38793;52.690;6.812;2024-03-23T10:21:14;7.25;;;1.30;;
52918;SDS011;38793;52.690;6.812;2024-03-23T10:23:42;10.73;;;1.90;;
52918;SDS011;38793;52.690;6.812;2024-03-23T10:28:56;8.63;;;1.73;;
52918;SDS011;38793;52.690;6.812;2024-03-23T10:31:32;17.10;;;2.25;;
52918;SDS011;38793;52.690;6.812;2024-03-23T10:33:58;9.10;;;2.22;;
52918;SDS011;38793;52.690;6.812;2024-03-23T10:36:25;11.63;;;1.30;;
52918;SDS011;38793;52.690;6.812;2024-03-23T10:38:52;6.15;;;1.42;;
52918;SDS011;38793;52.690;6.812;2024-03-23T10:41:19;4.97;;;0.52;;
52918;SDS011;38793;52.690;6.812;2024-03-23T10:43:47;4.15;;;0.68;;
52918;SDS011;38793;52.690;6.812;2024-03-23T10:46:14;9.68;;;0.82;;
52918;SDS011;38793;52.690;6.812;2024-03-23T10:48:40;8.20;;;1.20;;
52918;SDS011;38793;52.690;6.812;2024-03-23T10:51:07;14.18;;;1.23;;
52918;SDS011;38793;52.690;6.812;2024-03-23T10:53:33;9.52;;;1.00;;
52918;SDS011;38793;52.690;6.812;2024-03-23T10:55:59;5.03;;;0.70;;
52918;SDS011;38793;52.690;6.812;2024-03-23T10:58:32;11.30;;;1.52;;
52918;SDS011;38793;52.690;6.812;2024-03-23T11:01:12;8.73;;;1.48;;
52918;SDS011;38793;52.690;6.812;2024-03-23T11:03:39;5.85;;;0.82;;
52918;SDS011;38793;52.690;6.812;2024-03-23T11:06:09;15.85;;;2.10;;
52918;SDS011;38793;52.690;6.812;2024-03-23T11:08:36;12.27;;;1.20;;
52918;SDS011;38793;52.690;6.812;2024-03-23T11:13:51;8.93;;;1.65;;
52918;SDS011;38793;52.690;6.812;2024-03-23T11:16:24;16.42;;;1.77;;
52918;SDS011;38793;52.690;6.812;2024-03-23T11:21:53;11.65;;;1.75;;
52918;SDS011;38793;52.690;6.812;2024-03-23T11:24:20;6.13;;;1.48;;
52918;SDS011;38793;52.690;6.812;2024-03-23T11:26:47;5.32;;;1.20;;
52918;SDS011;38793;52.690;6.812;2024-03-23T11:29:14;6.68;;;1.42;;
52918;SDS011;38793;52.690;6.812;2024-03-23T11:34:16;9.30;;;0.80;;
52918;SDS011;38793;52.690;6.812;2024-03-23T11:36:43;7.77;;;1.03;;
52918;SDS011;38793;52.690;6.812;2024-03-23T11:39:16;5.35;;;0.98;;
52918;SDS011;38793;52.690;6.812;2024-03-23T11:41:47;5.82;;;0.70;;
52918;SDS011;38793;52.690;6.812;2024-03-23T11:44:20;4.72;;;1.25;;
52918;SDS011;38793;52.690;6.812;2024-03-23T11:46:49;11.57;;;1.65;;
52918;SDS011;38793;52.690;6.812;2024-03-23T11:49:25;8.03;;;1.23;;
52918;SDS011;38793;52.690;6.812;2024-03-23T11:51:53;9.15;;;1.27;;
52918;SDS011;38793;52.690;6.812;2024-03-23T11:54:20;7.78;;;1.70;;
52918;SDS011;38793;52.690;6.812;2024-03-23T11:59:40;7.65;;;0.73;;
52918;SDS011;38793;52.690;6.812;2024-03-23T12:02:10;12.82;;;1.85;;
52918;SDS011;38793;52.690;6.812;2024-03-23T12:04:36;12.52;;;1.98;;
52918;SDS011;38793;52.690;6.812;2024-03-23T12:09:38;10.23;;;1.38;;
52918;SDS011;38793;52.690;6.812;2024-03-23T12:14:39;11.88;;;1.13;;
52918;SDS011;38793;52.690;6.812;2024-03-23T12:17:14;8.40;;;1.08;;
52918;SDS011;38793;52.690;6.812;2024-03-23T12:19:41;8.95;;;1.17;;
52918;SDS011;38793;52.690;6.812;2024-03-23T12:22:07;8.77;;;1.55;;
52918;SDS011;38793;52.690;6.812;2024-03-23T12:27:00;7.07;;;1.20;;
52918;SDS011;38793;52.690;6.812;2024-03-23T12:29:30;4.57;;;1.05;;
52918;SDS011;38793;52.690;6.812;2024-03-23T12:31:59;5.70;;;0.80;;
52918;SDS011;38793;52.690;6.812;2024-03-23T12:34:25;10.32;;;1.67;;
52918;SDS011;38793;52.690;6.812;2024-03-23T12:36:51;9.18;;;1.20;;
52918;SDS011;38793;52.690;6.812;2024-03-23T12:39:17;6.63;;;0.85;;
52918;SDS011;38793;52.690;6.812;2024-03-23T12:41:43;4.65;;;0.95;;
52918;SDS011;38793;52.690;6.812;2024-03-23T12:44:09;3.78;;;0.63;;
52918;SDS011;38793;52.690;6.812;2024-03-23T12:46:37;6.85;;;0.98;;
52918;SDS011;38793;52.690;6.812;2024-03-23T12:51:28;8.30;;;0.80;;
52918;SDS011;38793;52.690;6.812;2024-03-23T12:53:54;8.00;;;0.65;;
52918;SDS011;38793;52.690;6.812;2024-03-23T12:56:20;7.63;;;1.40;;
52918;SDS011;38793;52.690;6.812;2024-03-23T12:58:45;6.75;;;1.20;;
52918;SDS011;38793;52.690;6.812;2024-03-23T13:01:16;12.35;;;1.30;;
52918;SDS011;38793;52.690;6.812;2024-03-23T13:03:42;4.53;;;0.50;;
52918;SDS011;38793;52.690;6.812;2024-03-23T13:06:09;1.52;;;0.30;;
52918;SDS011;38793;52.690;6.812;2024-03-23T13:08:35;4.63;;;0.52;;
52918;SDS011;38793;52.690;6.812;2024-03-23T13:11:01;3.78;;;0.30;;
52918;SDS011;38793;52.690;6.812;2024-03-23T13:13:27;3.90;;;0.30;;
52918;SDS011;38793;52.690;6.812;2024-03-23T13:15:52;2.53;;;0.47;;
52918;SDS011;38793;52.690;6.812;2024-03-23T13:18:18;3.70;;;0.93;;
52918;SDS011;38793;52.690;6.812;2024-03-23T13:20:44;6.63;;;0.50;;
52918;SDS011;38793;52.690;6.812;2024-03-23T13:23:10;6.88;;;1.00;;
52918;SDS011;38793;52.690;6.812;2024-03-23T13:25:35;5.68;;;0.85;;
52918;SDS011;38793;52.690;6.812;2024-03-23T13:28:02;6.50;;;1.33;;
52918;SDS011;38793;52.690;6.812;2024-03-23T13:30:28;10.38;;;1.25;;
52918;SDS011;38793;52.690;6.812;2024-03-23T13:32:56;7.50;;;1.00;;
52918;SDS011;38793;52.690;6.812;2024-03-23T13:35:21;9.13;;;1.80;;
52918;SDS011;38793;52.690;6.812;2024-03-23T13:37:48;11.15;;;1.70;;
52918;SDS011;38793;52.690;6.812;2024-03-23T13:40:13;4.80;;;1.00;;
52918;SDS011;38793;52.690;6.812;2024-03-23T13:42:39;7.10;;;1.05;;
52918;SDS011;38793;52.690;6.812;2024-03-23T13:45:05;9.00;;;1.13;;
52918;SDS011;38793;52.690;6.812;2024-03-23T13:47:31;9.50;;;0.60;;
52918;SDS011;38793;52.690;6.812;2024-03-23T13:49:56;6.55;;;1.73;;
52918;SDS011;38793;52.690;6.812;2024-03-23T13:52:22;6.87;;;1.50;;
52918;SDS011;38793;52.690;6.812;2024-03-23T13:54:50;10.95;;;1.20;;
52918;SDS011;38793;52.690;6.812;2024-03-23T13:57:17;6.57;;;1.20;;
52918;SDS011;38793;52.690;6.812;2024-03-23T13:59:45;5.28;;;1.67;;
52918;SDS011;38793;52.690;6.812;2024-03-23T14:02:11;7.37;;;1.57;;
52918;SDS011;38793;52.690;6.812;2024-03-23T14:04:39;7.82;;;0.90;;
52918;SDS011;38793;52.690;6.812;2024-03-23T14:07:05;4.53;;;1.60;;
52918;SDS011;38793;52.690;6.812;2024-03-23T14:09:32;8.65;;;0.90;;
52918;SDS011;38793;52.690;6.812;2024-03-23T14:11:58;6.97;;;0.77;;
52918;SDS011;38793;52.690;6.812;2024-03-23T14:14:25;4.28;;;0.90;;
52918;SDS011;38793;52.690;6.812;2024-03-23T14:16:51;4.60;;;1.20;;
52918;SDS011;38793;52.690;6.812;2024-03-23T14:19:16;7.43;;;1.02;;
52918;SDS011;38793;52.690;6.812;2024-03-23T14:21:42;10.10;;;1.90;;
52918;SDS011;38793;52.690;6.812;2024-03-23T14:24:07;12.17;;;3.27;;
52918;SDS011;38793;52.690;6.812;2024-03-23T14:26:34;9.70;;;2.13;;
52918;SDS011;38793;52.690;6.812;2024-03-23T14:29:00;10.93;;;2.13;;
52918;SDS011;38793;52.690;6.812;2024-03-23T14:31:26;9.27;;;2.50;;
52918;SDS011;38793;52.690;6.812;2024-03-23T14:33:52;6.87;;;1.63;;
52918;SDS011;38793;52.690;6.812;2024-03-23T14:36:17;7.43;;;1.10;;
52918;SDS011;38793;52.690;6.812;2024-03-23T14:38:49;3.85;;;0.85;;
52918;SDS011;38793;52.690;6.812;2024-03-23T14:41:15;9.23;;;1.83;;
52918;SDS011;38793;52.690;6.812;2024-03-23T14:43:41;8.88;;;1.58;;
52918;SDS011;38793;52.690;6.812;2024-03-23T14:51:03;4.75;;;1.13;;
52918;SDS011;38793;52.690;6.812;2024-03-23T14:53:34;4.05;;;0.73;;
52918;SDS011;38793;52.690;6.812;2024-03-23T14:56:02;6.20;;;0.70;;
52918;SDS011;38793;52.690;6.812;2024-03-23T14:58:29;4.53;;;0.68;;
52918;SDS011;38793;52.690;6.812;2024-03-23T15:01:04;5.00;;;1.10;;
52918;SDS011;38793;52.690;6.812;2024-03-23T15:03:34;5.63;;;1.00;;
52918;SDS011;38793;52.690;6.812;2024-03-23T15:06:00;6.20;;;0.70;;
52918;SDS011;38793;52.690;6.812;2024-03-23T15:08:27;3.35;;;0.60;;
52918;SDS011;38793;52.690;6.812;2024-03-23T15:10:53;5.35;;;0.65;;
52918;SDS011;38793;52.690;6.812;2024-03-23T15:13:19;7.18;;;0.70;;
52918;SDS011;38793;52.690;6.812;2024-03-23T15:15:46;6.15;;;1.08;;
52918;SDS011;38793;52.690;6.812;2024-03-23T15:18:16;9.57;;;1.20;;
52918;SDS011;38793;52.690;6.812;2024-03-23T15:20:53;4.50;;;0.70;;
52918;SDS011;38793;52.690;6.812;2024-03-23T15:23:19;6.00;;;1.50;;
52918;SDS011;38793;52.690;6.812;2024-03-23T15:25:45;9.00;;;1.27;;
52918;SDS011;38793;52.690;6.812;2024-03-23T15:28:11;7.28;;;1.23;;
52918;SDS011;38793;52.690;6.812;2024-03-23T15:33:03;9.27;;;1.30;;
52918;SDS011;38793;52.690;6.812;2024-03-23T15:35:29;6.20;;;1.10;;
52918;SDS011;38793;52.690;6.812;2024-03-23T15:37:55;7.22;;;1.02;;
52918;SDS011;38793;52.690;6.812;2024-03-23T15:40:21;8.60;;;1.65;;
52918;SDS011;38793;52.690;6.812;2024-03-23T15:42:46;8.00;;;1.57;;
52918;SDS011;38793;52.690;6.812;2024-03-23T15:45:12;10.88;;;2.22;;
52918;SDS011;38793;52.690;6.812;2024-03-23T15:47:38;18.17;;;1.58;;
52918;SDS011;38793;52.690;6.812;2024-03-23T15:50:03;9.27;;;2.90;;
52918;SDS011;38793;52.690;6.812;2024-03-23T15:52:35;9.90;;;2.05;;
52918;SDS011;38793;52.690;6.812;2024-03-23T15:57:30;7.82;;;1.05;;
52918;SDS011;38793;52.690;6.812;2024-03-23T15:59:56;5.90;;;0.90;;
52918;SDS011;38793;52.690;6.812;2024-03-23T16:02:22;6.50;;;1.42;;
52918;SDS011;38793;52.690;6.812;2024-03-23T16:04:48;5.63;;;1.10;;
52918;SDS011;38793;52.690;6.812;2024-03-23T16:07:14;8.00;;;1.17;;
52918;SDS011;38793;52.690;6.812;2024-03-23T16:09:39;10.77;;;1.27;;
52918;SDS011;38793;52.690;6.812;2024-03-23T16:12:05;5.55;;;0.82;;